Time;durP1;ratioP1;P1;durP2;ratioP2;P2;SDS_P1;SDS_P2;PMS_P1;PMS_P2;Temp;Humidity;BMP_temperature;BMP_pressure;BME280_temperature;BME280_humidity;BME280_pressure;Samples;Min_cycle;Max_cycle;Signal;HPM_P1;HPM_P2
2024/01/05 00:01:36;;;;;;;5.70;2.17;;;10.50;99.90;;;;;;5092985;28;20172;-75
2024/01/05 00:04:02;;;;;;;5.20;2.00;;;10.50;99.90;;;;;;5092696;28;20576;-75
2024/01/05 00:06:28;;;;;;;4.83;1.90;;;10.60;99.90;;;;;;5092777;28;20278;-75
2024/01/05 00:08:54;;;;;;;6.83;1.73;;;10.70;99.90;;;;;;5092986;28;20562;-75
2024/01/05 00:11:20;;;;;;;13.90;2.10;;;10.60;99.90;;;;;;5093029;28;20664;-75
2024/01/05 00:13:46;;;;;;;12.27;1.97;;;10.70;99.90;;;;;;5093163;28;20241;-75
2024/01/05 00:16:19;;;;;;;8.63;2.13;;;10.60;99.90;;;;;;5092898;28;20183;-75
2024/01/05 00:18:45;;;;;;;7.87;2.00;;;10.70;99.90;;;;;;5092645;28;20264;-75
2024/01/05 00:21:21;;;;;;;7.40;2.20;;;10.70;99.90;;;;;;5093128;28;20160;-75
2024/01/05 00:23:51;;;;;;;8.13;1.90;;;10.70;99.90;;;;;;5092818;28;20631;-75
2024/01/05 00:26:17;;;;;;;4.73;1.67;;;10.70;99.90;;;;;;5092788;28;20533;-75
2024/01/05 00:28:44;;;;;;;8.07;1.80;;;10.80;99.90;;;;;;5092549;28;20208;-75
2024/01/05 00:31:13;;;;;;;6.97;2.03;;;10.80;99.90;;;;;;5074916;28;20172;-75
2024/01/05 00:33:39;;;;;;;9.13;2.17;;;10.90;99.90;;;;;;5092560;28;20176;-75
2024/01/05 00:36:06;;;;;;;7.10;2.50;;;10.90;99.90;;;;;;5092810;28;20209;-75
2024/01/05 00:38:32;;;;;;;5.10;2.20;;;10.90;99.90;;;;;;5092776;28;20185;-75
2024/01/05 00:40:58;;;;;;;7.47;2.10;;;11.00;99.90;;;;;;5094933;28;20168;-75
2024/01/05 00:43:23;;;;;;;7.77;2.30;;;10.90;99.90;;;;;;5096351;28;20662;-75
2024/01/05 00:45:49;;;;;;;4.73;1.93;;;10.90;99.90;;;;;;5096204;28;20160;-74
2024/01/05 00:48:14;;;;;;;8.23;2.57;;;10.90;99.90;;;;;;5096203;28;20203;-74
2024/01/05 00:50:40;;;;;;;5.60;1.73;;;11.00;99.90;;;;;;5096246;28;20167;-74
2024/01/05 00:53:06;;;;;;;4.07;1.70;;;10.90;99.90;;;;;;5096126;28;20180;-75
2024/01/05 00:55:32;;;;;;;4.83;1.77;;;11.00;99.90;;;;;;5096010;28;20172;-74
2024/01/05 00:57:58;;;;;;;5.63;1.70;;;11.00;99.90;;;;;;5096053;28;20655;-75
2024/01/05 01:00:24;;;;;;;10.20;2.37;;;11.00;99.90;;;;;;5095738;28;20169;-74
2024/01/05 01:02:50;;;;;;;4.97;1.87;;;11.00;99.90;;;;;;5095939;28;20259;-75
2024/01/05 01:05:17;;;;;;;5.87;1.63;;;11.00;99.90;;;;;;5095703;28;20180;-75
2024/01/05 01:07:43;;;;;;;6.80;2.03;;;11.00;99.90;;;;;;5095840;28;20221;-75
2024/01/05 01:10:09;;;;;;;5.73;1.60;;;11.00;99.90;;;;;;5095971;28;20247;-75
2024/01/05 01:12:34;;;;;;;4.57;1.67;;;10.90;99.90;;;;;;5095922;28;20182;-74
2024/01/05 01:15:00;;;;;;;4.67;1.70;;;10.90;99.90;;;;;;5095367;28;20688;-75
2024/01/05 01:17:25;;;;;;;3.77;1.60;;;11.00;99.90;;;;;;5077598;28;20168;-75
2024/01/05 01:19:51;;;;;;;6.47;1.80;;;11.00;99.90;;;;;;5077594;28;20269;-74
2024/01/05 01:22:16;;;;;;;4.47;2.27;;;11.00;99.90;;;;;;5095714;28;20178;-74
2024/01/05 01:24:42;;;;;;;4.60;1.83;;;11.00;99.90;;;;;;5095337;28;20184;-74
2024/01/05 01:27:07;;;;;;;3.27;1.70;;;11.00;99.90;;;;;;5095408;28;20198;-74
2024/01/05 01:29:33;;;;;;;4.87;1.70;;;11.00;99.90;;;;;;5094773;28;20310;-74
2024/01/05 01:31:58;;;;;;;4.57;2.00;;;11.00;99.90;;;;;;5077253;28;20171;-75
2024/01/05 01:34:24;;;;;;;8.77;1.93;;;11.00;99.90;;;;;;5077158;28;20233;-74
2024/01/05 01:36:51;;;;;;;5.00;1.90;;;10.90;99.90;;;;;;5095360;28;20168;-74
2024/01/05 01:39:17;;;;;;;6.20;2.17;;;11.00;99.90;;;;;;5095125;28;20221;-75
2024/01/05 01:41:42;;;;;;;4.50;1.70;;;11.00;99.90;;;;;;5095167;28;20176;-74
2024/01/05 01:44:08;;;;;;;5.03;1.53;;;10.90;99.90;;;;;;5094876;28;20195;-75
2024/01/05 01:46:36;;;;;;;8.17;1.73;;;11.00;99.90;;;;;;5095427;28;20183;-75
2024/01/05 01:49:03;;;;;;;5.80;1.43;;;11.10;99.90;;;;;;5095043;28;20215;-75
2024/01/05 01:51:31;;;;;;;8.37;1.93;;;11.10;99.90;;;;;;5095126;28;20172;-74
2024/01/05 01:54:01;;;;;;;7.77;1.60;;;11.10;99.90;;;;;;5094899;28;20172;-73
2024/01/05 01:56:26;;;;;;;5.93;1.50;;;11.10;99.90;;;;;;5094996;28;20176;-74
2024/01/05 01:58:52;;;;;;;5.83;1.70;;;11.10;99.90;;;;;;5094760;28;20171;-74
2024/01/05 02:01:18;;;;;;;7.77;1.70;;;11.10;99.90;;;;;;5095075;28;20183;-74
2024/01/05 02:03:44;;;;;;;3.73;1.50;;;11.10;99.90;;;;;;5095018;28;20199;-74
2024/01/05 02:06:10;;;;;;;6.70;1.93;;;11.20;99.90;;;;;;5094649;28;20216;-73
2024/01/05 02:08:36;;;;;;;3.77;1.70;;;11.10;99.90;;;;;;5094514;28;20662;-74
2024/01/05 02:11:02;;;;;;;3.23;1.73;;;11.10;99.90;;;;;;5076456;28;20176;-74
2024/01/05 02:13:28;;;;;;;8.00;2.00;;;11.10;99.90;;;;;;5094479;28;20259;-74
2024/01/05 02:15:53;;;;;;;5.23;1.50;;;11.10;99.90;;;;;;5094617;28;20672;-74
2024/01/05 02:18:19;;;;;;;3.83;1.70;;;11.10;99.90;;;;;;5094648;28;20217;-74
2024/01/05 02:20:46;;;;;;;4.13;1.77;;;11.10;99.90;;;;;;5094587;28;20171;-75
2024/01/05 02:23:26;;;;;;;4.57;1.80;;;11.20;99.90;;;;;;5076152;28;20172;-74
2024/01/05 02:25:53;;;;;;;3.90;1.50;;;11.10;99.90;;;;;;5078149;28;20654;-74
2024/01/05 02:28:19;;;;;;;5.27;1.77;;;11.10;99.90;;;;;;5094031;28;20203;-74
2024/01/05 02:30:45;;;;;;;3.83;1.53;;;11.10;99.90;;;;;;5094108;28;20312;-74
2024/01/05 02:33:10;;;;;;;4.70;1.60;;;11.10;99.90;;;;;;5094459;28;20172;-73
2024/01/05 02:35:36;;;;;;;3.70;1.53;;;11.00;99.90;;;;;;5094071;28;20179;-75
2024/01/05 02:38:01;;;;;;;3.90;1.57;;;11.00;99.90;;;;;;5094159;28;20221;-75
2024/01/05 02:40:27;;;;;;;2.20;1.50;;;11.10;99.90;;;;;;5094271;28;20556;-74
2024/01/05 02:42:52;;;;;;;4.00;1.47;;;11.00;99.90;;;;;;5075512;28;20529;-75
2024/01/05 02:45:20;;;;;;;4.93;1.90;;;11.00;99.90;;;;;;5093885;28;20175;-73
2024/01/05 02:47:50;;;;;;;7.20;1.87;;;11.10;99.90;;;;;;5075912;28;20636;-74
2024/01/05 02:50:17;;;;;;;4.23;1.43;;;11.00;99.90;;;;;;5093857;28;20240;-74
2024/01/05 02:52:42;;;;;;;4.03;1.70;;;11.10;99.90;;;;;;5094081;28;20241;-74
2024/01/05 02:55:10;;;;;;;4.23;1.30;;;11.10;99.90;;;;;;5093850;28;20651;-75
2024/01/05 02:57:36;;;;;;;6.83;1.53;;;11.10;99.90;;;;;;5093486;28;20654;-74
2024/01/05 03:00:03;;;;;;;7.10;1.87;;;11.10;99.90;;;;;;5093924;28;20187;-74
2024/01/05 03:02:29;;;;;;;6.10;1.30;;;11.10;99.90;;;;;;5093518;28;20171;-74
2024/01/05 03:04:54;;;;;;;4.97;1.50;;;11.10;99.90;;;;;;5093713;28;20186;-73
2024/01/05 03:07:20;;;;;;;2.60;1.63;;;11.10;99.90;;;;;;5093540;28;20206;-73
2024/01/05 03:09:45;;;;;;;4.60;1.10;;;11.10;99.90;;;;;;5093652;28;20180;-73
2024/01/05 03:12:11;;;;;;;5.67;1.33;;;11.10;99.90;;;;;;5075431;28;20214;-74
2024/01/05 03:14:36;;;;;;;1.60;1.20;;;11.10;99.90;;;;;;5093494;28;20178;-74
2024/01/05 03:17:03;;;;;;;3.83;1.20;;;11.10;99.90;;;;;;5093710;28;20198;-74
2024/01/05 03:19:28;;;;;;;2.03;1.30;;;11.10;99.90;;;;;;5093412;28;20265;-74
2024/01/05 03:21:54;;;;;;;3.53;1.20;;;11.00;99.90;;;;;;5093501;28;20172;-74
2024/01/05 03:24:20;;;;;;;4.43;1.20;;;11.00;99.90;;;;;;5093521;28;20176;-74
2024/01/05 03:26:45;;;;;;;1.50;1.00;;;11.00;99.90;;;;;;5093027;28;20627;-74
2024/01/05 03:29:11;;;;;;;3.60;1.30;;;11.00;99.90;;;;;;5093106;28;20300;-73
2024/01/05 03:31:37;;;;;;;4.70;1.40;;;11.00;99.90;;;;;;5093509;28;20168;-73
2024/01/05 03:34:03;;;;;;;3.50;1.20;;;10.90;99.90;;;;;;5093393;28;20175;-74
2024/01/05 03:36:29;;;;;;;2.47;1.10;;;10.90;99.90;;;;;;5093436;28;20171;-73
2024/01/05 03:38:55;;;;;;;2.67;1.10;;;10.90;99.90;;;;;;5093381;28;20176;-74
2024/01/05 03:41:21;;;;;;;4.87;1.20;;;10.90;99.90;;;;;;5092847;28;20604;-74
2024/01/05 03:43:47;;;;;;;3.50;1.27;;;10.80;99.90;;;;;;5093179;28;20301;-74
2024/01/05 03:46:12;;;;;;;4.40;1.07;;;10.70;99.90;;;;;;5093123;28;20187;-74
2024/01/05 03:48:38;;;;;;;2.77;0.90;;;10.70;99.90;;;;;;5093283;28;20215;-73
2024/01/05 03:51:04;;;;;;;1.57;0.80;;;10.60;99.90;;;;;;5093245;28;20279;-74
2024/01/05 03:53:30;;;;;;;1.80;0.97;;;10.60;99.90;;;;;;5093366;28;20171;-74
2024/01/05 03:55:59;;;;;;;1.40;0.60;;;10.60;99.90;;;;;;5092708;28;20174;-74
2024/01/05 03:58:25;;;;;;;0.97;0.60;;;10.60;99.90;;;;;;5093095;28;20230;-75
2024/01/05 04:00:50;;;;;;;0.97;0.50;;;10.60;99.90;;;;;;5093168;28;20207;-73
2024/01/05 04:03:17;;;;;;;0.83;0.67;;;10.60;99.90;;;;;;5093092;28;20532;-75
2024/01/05 04:05:43;;;;;;;1.13;0.70;;;10.60;99.90;;;;;;5092721;28;20202;-74
2024/01/05 04:08:09;;;;;;;1.50;0.73;;;10.70;99.90;;;;;;5093022;28;20659;-74
2024/01/05 04:10:35;;;;;;;2.63;0.63;;;10.50;99.90;;;;;;5092553;28;20171;-74
2024/01/05 04:13:01;;;;;;;1.43;0.87;;;10.50;99.90;;;;;;5093003;28;20233;-74
2024/01/05 04:15:27;;;;;;;1.83;0.83;;;10.50;99.90;;;;;;5094473;28;20172;-74
2024/01/05 04:17:53;;;;;;;2.10;0.50;;;10.50;99.90;;;;;;5096351;28;20176;-73
2024/01/05 04:20:19;;;;;;;2.00;0.80;;;10.50;99.90;;;;;;5096133;28;20168;-74
2024/01/05 04:22:45;;;;;;;1.27;0.60;;;10.50;99.90;;;;;;5096429;28;20164;-75
2024/01/05 04:25:10;;;;;;;1.13;0.60;;;10.40;99.90;;;;;;5096340;28;20220;-74
2024/01/05 04:27:37;;;;;;;1.03;0.60;;;10.40;99.90;;;;;;5096446;28;20529;-75
2024/01/05 04:30:03;;;;;;;2.03;0.70;;;10.40;99.90;;;;;;5096132;28;20292;-74
2024/01/05 04:32:29;;;;;;;0.80;0.43;;;10.30;99.90;;;;;;5096241;28;20529;-74
2024/01/05 04:34:55;;;;;;;0.77;0.60;;;10.30;99.90;;;;;;5095999;28;20167;-75
2024/01/05 04:37:20;;;;;;;1.57;0.50;;;10.20;99.90;;;;;;5096603;28;20171;-75
2024/01/05 04:39:46;;;;;;;2.20;0.77;;;10.20;99.90;;;;;;5096286;28;20164;-74
2024/01/05 04:42:12;;;;;;;1.27;0.50;;;10.10;99.90;;;;;;5096171;28;20187;-74
2024/01/05 04:44:37;;;;;;;1.87;0.50;;;10.10;99.90;;;;;;5095916;28;20229;-74
2024/01/05 04:47:03;;;;;;;0.87;0.57;;;10.00;99.90;;;;;;5077301;28;20287;-75
2024/01/05 04:49:28;;;;;;;2.37;0.60;;;9.90;99.90;;;;;;5096257;28;20522;-75
2024/01/05 04:51:54;;;;;;;0.80;0.50;;;9.80;99.90;;;;;;5096017;28;20176;-74
2024/01/05 04:54:20;;;;;;;0.57;0.30;;;9.60;99.90;;;;;;5095523;28;20168;-74
2024/01/05 04:56:45;;;;;;;0.90;0.30;;;9.60;99.90;;;;;;5095625;28;20529;-73
2024/01/05 04:59:11;;;;;;;1.40;0.40;;;9.60;99.90;;;;;;5095263;28;20318;-74
2024/01/05 05:01:36;;;;;;;0.40;0.40;;;9.60;99.90;;;;;;5095701;28;20624;-74
2024/01/05 05:04:02;;;;;;;0.67;0.50;;;9.50;99.90;;;;;;5095809;28;20186;-74
2024/01/05 05:06:27;;;;;;;1.63;0.50;;;9.50;99.90;;;;;;5077199;28;20215;-74
2024/01/05 05:08:53;;;;;;;0.60;0.30;;;9.40;99.90;;;;;;5095465;28;20273;-74
2024/01/05 05:11:20;;;;;;;0.77;0.40;;;9.30;99.90;;;;;;5095721;28;20168;-74
2024/01/05 05:13:45;;;;;;;0.60;0.30;;;9.20;99.90;;;;;;5095652;28;20168;-74
2024/01/05 05:16:11;;;;;;;0.70;0.37;;;9.10;99.90;;;;;;5095232;28;20178;-74
2024/01/05 05:18:36;;;;;;;1.20;0.50;;;9.10;99.90;;;;;;5095160;28;20572;-75
2024/01/05 05:21:03;;;;;;;0.30;0.30;;;9.10;99.90;;;;;;5095382;28;20261;-74
2024/01/05 05:23:28;;;;;;;2.43;0.60;;;9.10;99.90;;;;;;5094933;28;20176;-72
2024/01/05 05:25:54;;;;;;;0.47;0.40;;;9.10;99.90;;;;;;5094799;28;20180;-73
2024/01/05 05:28:19;;;;;;;1.13;0.50;;;9.00;99.90;;;;;;5076992;28;20204;-74
2024/01/05 05:30:45;;;;;;;0.60;0.60;;;9.10;99.90;;;;;;5094124;28;20657;-74
2024/01/05 05:33:11;;;;;;;3.57;0.63;;;9.10;99.90;;;;;;5094849;28;20172;-75
2024/01/05 05:35:36;;;;;;;0.83;0.60;;;9.10;99.90;;;;;;5094956;28;20176;-74
2024/01/05 05:38:03;;;;;;;2.83;0.60;;;9.10;99.90;;;;;;5076038;28;20232;-74
2024/01/05 05:40:29;;;;;;;1.43;0.40;;;9.00;99.90;;;;;;5076706;28;20180;-73
2024/01/05 05:42:55;;;;;;;1.47;0.60;;;9.00;99.90;;;;;;5094973;28;20276;-74
2024/01/05 05:45:21;;;;;;;1.83;0.60;;;8.90;99.90;;;;;;5094516;28;20685;-76
2024/01/05 05:47:46;;;;;;;0.33;0.30;;;8.80;99.90;;;;;;5094636;28;20243;-74
2024/01/05 05:50:13;;;;;;;1.60;0.80;;;8.70;99.90;;;;;;5094916;28;20172;-74
2024/01/05 05:52:39;;;;;;;0.70;0.50;;;8.70;99.90;;;;;;5094353;28;20168;-74
2024/01/05 05:55:06;;;;;;;1.57;0.53;;;8.60;99.90;;;;;;5094551;28;20171;-74
2024/01/05 05:57:32;;;;;;;1.60;0.70;;;8.60;99.90;;;;;;5094613;28;20214;-74
2024/01/05 05:59:58;;;;;;;0.97;0.50;;;8.60;99.90;;;;;;5094152;28;20172;-75
2024/01/05 06:02:24;;;;;;;0.90;0.60;;;8.60;99.90;;;;;;5094246;28;20168;-74
2024/01/05 06:04:50;;;;;;;1.60;0.67;;;8.60;99.90;;;;;;5093801;28;20164;-74
2024/01/05 06:07:16;;;;;;;1.47;0.60;;;8.60;99.90;;;;;;5093700;28;20199;-75
2024/01/05 06:09:42;;;;;;;0.43;0.40;;;8.60;99.90;;;;;;5094100;28;20172;-74
2024/01/05 06:12:09;;;;;;;1.33;0.50;;;8.60;99.90;;;;;;5094173;28;20657;-74
2024/01/05 06:14:36;;;;;;;3.43;0.60;;;8.50;99.90;;;;;;5094266;28;20167;-74
2024/01/05 06:17:02;;;;;;;0.83;0.57;;;8.60;99.90;;;;;;5094374;28;20222;-74
2024/01/05 06:19:27;;;;;;;0.90;0.57;;;8.60;99.90;;;;;;5075305;28;20523;-74
2024/01/05 06:21:53;;;;;;;1.00;0.40;;;8.60;99.90;;;;;;5093509;28;20286;-74
2024/01/05 06:24:18;;;;;;;3.50;0.70;;;8.50;99.90;;;;;;5093884;28;20168;-73
2024/01/05 06:26:44;;;;;;;1.07;0.90;;;8.50;99.90;;;;;;5093767;28;20187;-74
2024/01/05 06:29:10;;;;;;;1.77;0.83;;;8.40;99.90;;;;;;5093593;28;20584;-74
2024/01/05 06:31:35;;;;;;;2.13;0.70;;;8.30;99.90;;;;;;5093515;28;20529;-74
2024/01/05 06:34:01;;;;;;;1.37;0.70;;;8.30;99.90;;;;;;5074937;28;20187;-75
2024/01/05 06:36:26;;;;;;;2.50;0.80;;;8.20;99.90;;;;;;5093260;28;20168;-75
2024/01/05 06:38:52;;;;;;;0.67;0.67;;;8.10;99.90;;;;;;5093222;28;20207;-74
2024/01/05 06:41:17;;;;;;;5.20;0.70;;;8.10;99.90;;;;;;5093855;28;20171;-74
2024/01/05 06:43:43;;;;;;;0.73;0.67;;;8.10;99.90;;;;;;5092820;28;20246;-74
2024/01/05 06:46:08;;;;;;;0.47;0.43;;;8.10;99.90;;;;;;5093434;28;20188;-75
2024/01/05 06:48:34;;;;;;;0.50;0.50;;;8.10;99.90;;;;;;5092633;28;20203;-74
2024/01/05 06:51:00;;;;;;;0.83;0.70;;;8.10;99.90;;;;;;5092801;28;20168;-73
2024/01/05 06:53:25;;;;;;;2.87;0.60;;;8.10;99.90;;;;;;5093106;28;20250;-74
2024/01/05 06:55:51;;;;;;;1.27;0.70;;;8.10;99.90;;;;;;5093106;28;20207;-74
2024/01/05 06:58:17;;;;;;;0.73;0.67;;;8.00;99.90;;;;;;5092772;28;20183;-74
2024/01/05 07:00:42;;;;;;;0.90;0.83;;;7.90;99.90;;;;;;5093596;28;20164;-74
2024/01/05 07:03:08;;;;;;;1.03;0.80;;;7.90;99.90;;;;;;5092750;28;20271;-75
2024/01/05 07:05:34;;;;;;;1.13;0.70;;;7.80;99.90;;;;;;5073837;28;20196;-75
2024/01/05 07:07:59;;;;;;;1.60;0.73;;;7.80;99.90;;;;;;5093208;28;20211;-74
2024/01/05 07:10:25;;;;;;;1.00;0.70;;;7.70;99.90;;;;;;5092930;28;20172;-75
2024/01/05 07:12:50;;;;;;;2.87;0.90;;;7.60;99.90;;;;;;5091809;28;20176;-74
2024/01/05 07:15:16;;;;;;;1.53;0.80;;;7.60;99.90;;;;;;5093226;28;20168;-74
2024/01/05 07:17:43;;;;;;;1.30;0.90;;;7.60;99.90;;;;;;5092737;28;20241;-74
2024/01/05 07:20:11;;;;;;;6.03;0.80;;;7.60;99.90;;;;;;5092322;28;20167;-74
2024/01/05 07:22:37;;;;;;;1.40;0.67;;;7.50;99.90;;;;;;5092810;28;20181;-75
2024/01/05 07:25:03;;;;;;;3.37;0.87;;;7.40;99.90;;;;;;5092359;28;20176;-74
2024/01/05 07:27:28;;;;;;;1.47;0.60;;;7.40;99.90;;;;;;5092476;28;20200;-73
2024/01/05 07:29:55;;;;;;;4.50;0.67;;;7.40;99.90;;;;;;5092123;28;20220;-74
2024/01/05 07:32:21;;;;;;;0.73;0.60;;;7.40;99.90;;;;;;5092636;28;20202;-73
2024/01/05 07:34:46;;;;;;;0.87;0.70;;;7.40;99.90;;;;;;5092665;28;20199;-73
2024/01/05 07:37:12;;;;;;;1.27;0.50;;;7.30;99.90;;;;;;5092113;28;20178;-75
2024/01/05 07:39:38;;;;;;;2.03;0.90;;;7.30;99.90;;;;;;5091864;28;20623;-75
2024/01/05 07:42:04;;;;;;;1.43;0.80;;;7.30;99.90;;;;;;5092123;28;20195;-74
2024/01/05 07:44:30;;;;;;;2.73;0.83;;;7.30;99.90;;;;;;5092604;28;20169;-74
2024/01/05 07:46:56;;;;;;;1.60;1.17;;;7.30;99.90;;;;;;5092345;28;20221;-74
2024/01/05 07:49:21;;;;;;;2.30;0.80;;;7.10;99.90;;;;;;5094077;28;20237;-74
2024/01/05 07:51:47;;;;;;;0.83;0.50;;;7.00;99.90;;;;;;5096505;28;20175;-75
2024/01/05 07:54:12;;;;;;;0.50;0.40;;;7.00;99.90;;;;;;5096523;28;20256;-74
2024/01/05 07:56:38;;;;;;;0.83;0.70;;;7.00;99.90;;;;;;5096266;28;20176;-74
2024/01/05 07:59:04;;;;;;;1.77;0.70;;;7.00;99.90;;;;;;5096739;28;20258;-75
2024/01/05 08:01:30;;;;;;;1.63;0.80;;;7.00;99.90;;;;;;5096664;28;20596;-76
2024/01/05 08:03:55;;;;;;;1.43;0.70;;;7.00;99.90;;;;;;5096216;28;20576;-74
2024/01/05 08:06:21;;;;;;;1.63;0.90;;;7.00;99.90;;;;;;5096226;28;20249;-76
2024/01/05 08:08:50;;;;;;;1.20;0.90;;;7.10;99.90;;;;;;5096224;28;20670;-75
2024/01/05 08:11:16;;;;;;;2.07;0.93;;;7.10;99.90;;;;;;5095799;28;20219;-76
2024/01/05 08:13:42;;;;;;;3.07;0.97;;;7.20;99.90;;;;;;5095634;28;20262;-75
2024/01/05 08:16:09;;;;;;;2.70;1.10;;;7.20;99.90;;;;;;5095218;28;20168;-75
2024/01/05 08:18:35;;;;;;;1.50;0.90;;;7.30;99.90;;;;;;5096244;28;20200;-74
2024/01/05 08:21:02;;;;;;;3.40;1.33;;;7.30;99.90;;;;;;5096120;28;20180;-75
2024/01/05 08:23:28;;;;;;;2.70;1.27;;;7.30;99.90;;;;;;5096056;28;20237;-75
2024/01/05 08:25:54;;;;;;;5.40;1.33;;;7.30;99.90;;;;;;5096074;28;20240;-74
2024/01/05 08:28:19;;;;;;;2.87;1.03;;;7.30;99.90;;;;;;5096141;28;20610;-75
2024/01/05 08:30:45;;;;;;;2.53;1.20;;;7.30;99.90;;;;;;5095408;28;20219;-75
2024/01/05 08:33:10;;;;;;;4.27;1.50;;;7.40;99.90;;;;;;5095562;28;20178;-76
2024/01/05 08:35:36;;;;;;;4.53;1.70;;;7.40;99.90;;;;;;5077160;28;20631;-75
2024/01/05 08:38:04;;;;;;;4.20;1.57;;;7.40;99.90;;;;;;5096025;28;20172;-75
2024/01/05 08:40:30;;;;;;;3.03;1.40;;;7.50;99.90;;;;;;5095746;28;20179;-76
2024/01/05 08:42:56;;;;;;;2.97;1.40;;;7.50;99.90;;;;;;5095872;28;20623;-75
2024/01/05 08:45:22;;;;;;;1.43;1.30;;;7.50;99.90;;;;;;5095332;28;20187;-75
2024/01/05 08:47:48;;;;;;;3.10;1.30;;;7.50;99.90;;;;;;5095731;28;20196;-75
2024/01/05 08:50:16;;;;;;;2.47;1.67;;;7.50;99.90;;;;;;5095297;28;20262;-76
2024/01/05 08:52:43;;;;;;;3.03;1.40;;;7.50;99.90;;;;;;5095050;28;20179;-75
2024/01/05 08:55:09;;;;;;;3.93;1.53;;;7.60;99.90;;;;;;5095120;28;20186;-75
2024/01/05 08:57:35;;;;;;;2.57;1.23;;;7.60;99.90;;;;;;5095794;28;20594;-76
2024/01/05 09:00:01;;;;;;;4.63;1.57;;;7.60;99.90;;;;;;5094843;28;20172;-76
2024/01/05 09:02:27;;;;;;;1.93;1.40;;;7.60;99.90;;;;;;5094692;28;20628;-74
2024/01/05 09:04:52;;;;;;;3.90;1.60;;;7.60;99.90;;;;;;5076703;28;20176;-76
2024/01/05 09:07:18;;;;;;;1.70;1.50;;;7.60;99.90;;;;;;5077052;28;20199;-75
2024/01/05 09:09:43;;;;;;;3.63;1.77;;;7.60;99.90;;;;;;5095429;28;20172;-75
2024/01/05 09:12:09;;;;;;;3.83;1.93;;;7.60;99.90;;;;;;5095436;28;20209;-74
2024/01/05 09:14:37;;;;;;;3.20;2.20;;;7.70;99.90;;;;;;5094290;28;20582;-75
2024/01/05 09:17:03;;;;;;;3.10;1.80;;;7.70;99.90;;;;;;5095463;28;20172;-74
2024/01/05 09:19:29;;;;;;;4.60;1.90;;;7.70;99.90;;;;;;5095522;28;20184;-74
2024/01/05 09:21:55;;;;;;;2.90;1.67;;;7.70;99.90;;;;;;5094840;28;20643;-74
2024/01/05 09:24:21;;;;;;;3.10;1.80;;;7.70;99.90;;;;;;5094919;28;20175;-74
2024/01/05 09:26:47;;;;;;;7.03;2.30;;;7.70;99.90;;;;;;5095264;28;20164;-75
2024/01/05 09:29:13;;;;;;;5.70;2.30;;;7.80;99.90;;;;;;5094825;28;20273;-76
2024/01/05 09:31:44;;;;;;;7.13;2.67;;;7.80;99.90;;;;;;5076365;28;20172;-75
2024/01/05 09:34:09;;;;;;;5.13;2.10;;;7.80;99.90;;;;;;5094148;28;20171;-76
2024/01/05 09:36:39;;;;;;;6.07;2.70;;;7.80;99.90;;;;;;5094564;28;20168;-74
2024/01/05 09:39:05;;;;;;;8.43;2.73;;;7.90;99.90;;;;;;5094679;28;20176;-75
2024/01/05 09:41:30;;;;;;;7.97;3.37;;;7.90;99.90;;;;;;5095374;28;20262;-75
2024/01/05 09:43:57;;;;;;;6.30;2.87;;;7.90;99.90;;;;;;5076404;28;20297;-74
2024/01/05 09:46:23;;;;;;;6.97;2.17;;;7.90;99.90;;;;;;5076668;28;20168;-74
2024/01/05 09:48:49;;;;;;;4.20;1.90;;;7.90;99.90;;;;;;5094428;28;20195;-74
2024/01/05 09:51:15;;;;;;;5.40;2.00;;;7.80;99.90;;;;;;5093649;28;20171;-76
2024/01/05 09:53:42;;;;;;;6.07;3.70;;;7.80;99.90;;;;;;5094664;28;20179;-74
2024/01/05 09:56:07;;;;;;;7.07;2.73;;;7.90;99.90;;;;;;5094578;28;20160;-75
2024/01/05 09:58:35;;;;;;;4.67;2.17;;;7.90;99.90;;;;;;5094021;28;20216;-75
2024/01/05 10:01:08;;;;;;;8.00;2.70;;;7.90;99.90;;;;;;5094523;28;20186;-75
2024/01/05 10:03:34;;;;;;;6.77;2.70;;;8.00;99.90;;;;;;5094210;28;20252;-75
2024/01/05 10:05:59;;;;;;;25.00;17.30;;;8.00;99.90;;;;;;5093814;28;20191;-74
2024/01/05 10:08:25;;;;;;;6.80;2.43;;;8.00;99.90;;;;;;5093878;28;20223;-75
2024/01/05 10:10:55;;;;;;;7.27;2.50;;;7.90;99.90;;;;;;5094176;28;20259;-74
2024/01/05 10:13:21;;;;;;;4.27;2.50;;;7.90;99.90;;;;;;5093494;28;20178;-75
2024/01/05 10:16:02;;;;;;;5.77;2.30;;;8.00;99.90;;;;;;5094371;28;20254;-76
2024/01/05 10:18:28;;;;;;;5.90;2.40;;;7.90;99.90;;;;;;5075992;28;20580;-75
2024/01/05 10:20:57;;;;;;;6.93;2.37;;;8.00;99.90;;;;;;5093723;28;20172;-74
2024/01/05 10:23:24;;;;;;;3.27;1.70;;;8.10;99.90;;;;;;5093712;28;20217;-75
2024/01/05 10:25:51;;;;;;;2.67;1.90;;;8.20;99.90;;;;;;5093464;28;20172;-75
2024/01/05 10:28:31;;;;;;;5.90;2.10;;;8.10;99.90;;;;;;5093588;28;20659;-73
2024/01/05 10:31:14;;;;;;;3.17;1.80;;;8.10;99.90;;;;;;5074877;28;20670;-74
2024/01/05 10:33:54;;;;;;;5.57;2.60;;;8.10;99.90;;;;;;5093689;28;20251;-76
2024/01/05 10:36:25;;;;;;;3.40;1.90;;;8.10;99.90;;;;;;5093793;28;20182;-75
2024/01/05 10:38:51;;;;;;;2.70;2.07;;;8.10;99.90;;;;;;5093552;28;20163;-74
2024/01/05 10:41:18;;;;;;;4.97;2.83;;;8.00;99.90;;;;;;5092934;28;20171;-74
2024/01/05 10:43:45;;;;;;;4.17;2.10;;;7.90;99.90;;;;;;5075137;28;20171;-74
2024/01/05 10:46:14;;;;;;;8.43;4.97;;;7.90;99.90;;;;;;5093174;28;20194;-75
2024/01/05 10:48:43;;;;;;;6.60;4.40;;;7.90;99.90;;;;;;5092847;28;20643;-75
2024/01/05 10:51:12;;;;;;;4.53;2.10;;;7.90;99.90;;;;;;5093285;28;20172;-74
2024/01/05 10:53:38;;;;;;;4.27;2.33;;;7.80;99.90;;;;;;5093121;28;20195;-74
2024/01/05 10:56:06;;;;;;;4.63;2.97;;;7.80;99.90;;;;;;5092653;28;20206;-76
2024/01/05 10:58:32;;;;;;;4.63;3.73;;;7.80;99.90;;;;;;5093015;28;20172;-75
2024/01/05 11:01:02;;;;;;;10.23;9.17;;;7.90;99.90;;;;;;5093372;28;20180;-75
2024/01/05 11:03:36;;;;;;;3.07;2.50;;;7.90;99.90;;;;;;5093062;28;20164;-73
2024/01/05 11:06:09;;;;;;;6.20;3.43;;;7.90;99.90;;;;;;5093127;28;20188;-74
2024/01/05 11:08:52;;;;;;;4.03;2.60;;;7.90;99.90;;;;;;5093178;28;20281;-75
2024/01/05 11:11:25;;;;;;;5.30;4.40;;;7.90;99.90;;;;;;5091881;28;20203;-74
2024/01/05 11:13:51;;;;;;;6.00;2.87;;;8.00;99.90;;;;;;5092438;28;20176;-75
2024/01/05 11:17:09;;;;;;;5.20;3.40;;;7.90;99.90;;;;;;5092956;28;20172;-75
2024/01/05 11:19:53;;;;;;;4.70;2.33;;;7.90;99.90;;;;;;4991631;28;20261;-75
2024/01/05 11:22:28;;;;;;;5.63;3.00;;;7.90;99.90;;;;;;4991233;28;20191;-75
2024/01/05 11:24:55;;;;;;;12.50;5.93;;;8.00;99.90;;;;;;4990431;28;20190;-76
2024/01/05 11:27:30;;;;;;;4.17;3.50;;;8.00;99.90;;;;;;4991917;28;20171;-75
2024/01/05 11:29:57;;;;;;;6.40;3.47;;;8.10;99.90;;;;;;4990442;28;20771;-74
2024/01/05 11:32:36;;;;;;;6.13;3.73;;;8.10;99.90;;;;;;4990656;28;20592;-75
2024/01/05 11:35:02;;;;;;;7.53;3.17;;;8.20;99.90;;;;;;4990827;28;20183;-75
2024/01/05 11:37:30;;;;;;;6.03;3.20;;;8.30;99.90;;;;;;4991108;28;20257;-75
2024/01/05 11:40:03;;;;;;;8.07;5.57;;;8.30;99.90;;;;;;4990664;28;20742;-74
2024/01/05 11:42:31;;;;;;;10.47;3.50;;;8.30;99.90;;;;;;4991049;28;20175;-75
2024/01/05 11:44:58;;;;;;;4.63;3.60;;;8.30;99.90;;;;;;4990820;28;20202;-74
2024/01/05 11:47:44;;;;;;;21.17;14.30;;;8.30;99.90;;;;;;4990580;28;20179;-74
2024/01/05 11:50:32;;;;;;;8.53;7.07;;;8.40;99.90;;;;;;5023267;28;20346;-74
2024/01/05 11:53:22;;;;;;;12.53;5.87;;;8.40;99.90;;;;;;5052110;28;20193;-75
2024/01/05 11:55:53;;;;;;;15.87;8.27;;;8.40;99.90;;;;;;5052062;28;20202;-75
2024/01/05 11:58:18;;;;;;;7.93;4.50;;;8.40;99.90;;;;;;5051690;28;20192;-76
2024/01/05 12:00:46;;;;;;;6.23;4.00;;;8.40;99.90;;;;;;5052228;28;20526;-74
2024/01/05 12:03:13;;;;;;;5.77;3.40;;;8.40;99.90;;;;;;5052314;28;20165;-75
2024/01/05 12:05:38;;;;;;;18.17;11.10;;;8.50;99.90;;;;;;5052163;28;20323;-76
2024/01/05 12:08:14;;;;;;;5.60;3.90;;;8.50;99.90;;;;;;5051682;28;20291;-74
2024/01/05 12:10:40;;;;;;;7.77;5.03;;;8.50;99.90;;;;;;5051592;28;20161;-75
2024/01/05 12:13:06;;;;;;;7.53;3.60;;;8.60;99.90;;;;;;5050767;28;20181;-75
2024/01/05 12:15:33;;;;;;;10.07;5.63;;;8.60;99.90;;;;;;5052345;28;20177;-75
2024/01/05 12:18:03;;;;;;;10.60;3.80;;;8.70;99.90;;;;;;5051703;28;20185;-75
2024/01/05 12:20:29;;;;;;;15.47;8.43;;;8.60;99.90;;;;;;5051930;28;20223;-75
2024/01/05 12:22:55;;;;;;;6.70;3.60;;;8.70;99.90;;;;;;5051385;28;20177;-75
2024/01/05 12:25:20;;;;;;;94.17;47.83;;;8.80;99.90;;;;;;5052280;28;20176;-76
2024/01/05 12:27:46;;;;;;;17.33;9.90;;;8.70;99.90;;;;;;5051522;28;20528;-75
2024/01/05 12:30:13;;;;;;;8.23;6.10;;;8.70;99.90;;;;;;5080453;28;20223;-74
2024/01/05 12:32:39;;;;;;;49.97;24.57;;;8.70;99.90;;;;;;5092342;28;20243;-75
2024/01/05 12:35:05;;;;;;;23.80;12.33;;;8.60;99.90;;;;;;5092296;28;20256;-75
2024/01/05 12:37:34;;;;;;;13.80;8.00;;;8.60;99.90;;;;;;5094262;28;20631;-75
2024/01/05 12:40:12;;;;;;;336.67;170.37;;;8.60;99.90;;;;;;5095724;28;20172;-75
2024/01/05 12:42:38;;;;;;;9.97;7.63;;;8.60;99.90;;;;;;5096511;28;20167;-75
2024/01/05 12:45:05;;;;;;;6.47;4.60;;;8.60;99.90;;;;;;5095422;28;20176;-75
2024/01/05 12:47:33;;;;;;;4.60;3.73;;;8.60;99.90;;;;;;5095297;28;20176;-75
2024/01/05 12:49:59;;;;;;;5.50;4.50;;;8.50;99.90;;;;;;5095020;28;20160;-74
2024/01/05 12:52:36;;;;;;;4.80;3.20;;;8.40;99.90;;;;;;5095204;28;20175;-74